AirNav   Pilot Hours Calculator
 
 1328 users online  

8KY4 Cumberland County Hospital Heliport
Burkesville, Kentucky, USA

GOING TO BURKESVILLE?


FAA INFORMATION EFFECTIVE 19 MAY 2022

Location

FAA Identifier: 8KY4
Lat/Long: 36-47-43.8600N 085-22-23.0600W
36-47.731000N 085-22.384333W
36.7955167,-85.3730722
(estimated)
Elevation: 636 ft. / 194 m (estimated)
Time zone: UTC -5 (UTC -6 during Standard Time)
Zip code: 42717

Heliport Operations

Heliport use: Private use. Permission required prior to landing
Activation date: 07/2010
Control tower: no
ARTCC: INDIANAPOLIS CENTER
FSS: LOUISVILLE FLIGHT SERVICE STATION
Attendance: CONTINUOUS
Wind indicator: no
Segmented circle: no
Lights: SS-SR

Heliport Communications

WX AWOS-AV at TZV (14 nm W): 124.175
WX AWOS-3 at K24 (18 nm NE): 119.6 (270-343-5556)

Nearby radio navigation aids

VOR radial/distance  VOR name  Freq  Var
LVTr324/16.1LIVINGSTON VOR/DME108.4002W

 
NDB name  Hdg/Dist  Freq  Var  ID
CUMBERLAND RIVER255/35.338805WCDX -.-. -.. -..-

Heliport Services

Runway Information

Helipad H1

Dimensions: 50 x 50 ft. / 15 x 15 m
Surface: asphalt/concrete
Runway edge lights: non-standard
TEMPORARY LIGHTING
Latitude: 36-47.731000N
Longitude: 085-22.384333W
Elevation: 636.0 ft.
Traffic pattern: leftleft
Obstructions: tank
16 FT TANK 46 FT NW OF PAD.

Heliport Ownership and Management from official FAA records

Ownership: Privately-owned
Owner: CUMBERLAND COUNTY HOSPITAL
PO BOX 280
BURKESVILLE, KY 42717
Phone 270-864-2511
Manager: HARVEY GRAVES
299 GLASGOW RD
BURKESVILLE, KY 42717
Phone 270-864-2511

Additional Remarks

OWNER DESIRES ARPT NOT BE CHARTED.
FOR CD CTC INDIANAPOLIS ARTCC AT 317-247-2411.

Instrument Procedures

There are no published instrument procedures at 8KY4.

Some nearby airports with instrument procedures:

KTZV - Tompkinsville/Monroe County Airport (14 nm W)
K24 - Russell County Airport (18 nm NE)
8A3 - Livingston Municipal Airport (23 nm S)
KEKQ - Wayne County Airport (25 nm E)
KGLW - Glasgow Municipal Airport (31 nm NW)
 
Loc | Ops | Rwys | IFR | FBO | Links
Com | Nav | Svcs | Stats | Notes
Aerial photo
No photo
 
Sectional chart

 
Airport distance calculator
Flying to Cumberland County Hospital Heliport? Find the distance to fly.

From to 8KY4

Sunrise and sunset
Times for 27-May-2022
 Local
(UTC-5)
 Zulu
(UTC)
Morning civil twilight04:5709:57
Sunrise05:2710:27
Sunset19:5000:50
Evening civil twilight20:2001:20

Current date and time
Zulu (UTC)  27-May-2022 21:35:47
Local (UTC-5)  27-May-2022 16:35:47
 
METAR
K8A3 
23nm S 
272115Z AUTO 25009G15KT 10SM FEW029 FEW034 FEW075 18/14 A2987 RMK A01
KEKQ 
25nm E 
272103Z AUTO 26008KT 10SM FEW022 BKN070 OVC090 19/16 A2988 RMK AO2 PNO $
KGLW 
31nm NW 
272115Z AUTO 28010G16KT 10SM SCT032 SCT041 SCT070 21/14 A2987 RMK AO2 T02090136
KAAS 
34nm N 
272115Z AUTO 25007G16KT 200V290 10SM SCT034 BKN070 OVC075 20/11 A2989 RMK AO1
KSME 
39nm NE 
272115Z AUTO 25007KT 10SM FEW019 FEW034 BKN065 17/17 A2984 RMK AO2
KSCX 
43nm SE 
272115Z AUTO VRB06G11KT 10SM FEW050 BKN075 OVC085 19/13 A2988 RMK A01
KSRB 
45nm S 
272115Z AUTO 24005KT 10SM BKN034 BKN039 BKN047 21/14 A2989 RMK A01
TAF
NOTAMs
Click for the latest NOTAMs
NOTAMs are issued by the DoD/FAA and will open in a separate window not controlled by AirNav.

 

 
 

Would you like to see your business listed on this page?

 If your business provides an interesting product or service to pilots, flight crews, aircraft, or users of the Cumberland County Hospital Heliport, you should consider listing it here.  To start the listing process, click on the button below
 
Add a business
 

Other Pages about Cumberland County Hospital Heliport

Update a link
 
Copyright © AirNav, LLC. All rights reserved. Privacy Policy  Contact